createdAt,value
2017-11-06T00:00:27.362Z,8.36
2017-11-06T00:02:56.017Z,8.13
2017-11-06T00:05:23.407Z,8.01
2017-11-06T00:07:50.837Z,7.93
2017-11-06T00:10:18.218Z,7.92
2017-11-06T00:12:45.674Z,7.86
2017-11-06T00:15:13.106Z,8.02
2017-11-06T00:17:40.489Z,8.23
2017-11-06T00:20:07.950Z,8.38
2017-11-06T00:22:35.329Z,8.28
2017-11-06T00:25:02.777Z,8.05
2017-11-06T00:27:30.179Z,7.99
2017-11-06T00:29:57.598Z,8.14
2017-11-06T00:32:24.992Z,8.31
2017-11-06T00:34:52.415Z,8.34
2017-11-06T00:37:19.802Z,8.16
2017-11-06T00:39:47.221Z,7.93
2017-11-06T00:42:14.633Z,7.79
2017-11-06T00:44:42.056Z,7.69
2017-11-06T00:47:09.489Z,7.62
2017-11-06T00:49:36.903Z,7.54
2017-11-06T00:52:04.343Z,7.54
2017-11-06T00:54:31.750Z,7.67
2017-11-06T00:56:59.193Z,7.70
2017-11-06T00:59:27.375Z,7.88
2017-11-06T01:01:54.804Z,8.09
2017-11-06T01:04:22.199Z,7.99
2017-11-06T01:06:49.618Z,7.99
2017-11-06T01:09:17.015Z,8.00
2017-11-06T01:11:44.436Z,8.03
2017-11-06T01:14:11.821Z,8.05
2017-11-06T01:16:39.256Z,8.08
2017-11-06T01:19:06.704Z,8.14
2017-11-06T01:21:34.122Z,8.08
2017-11-06T01:24:01.559Z,8.17
2017-11-06T01:28:55.998Z,8.02
2017-11-06T01:31:23.401Z,7.73
2017-11-06T01:33:50.828Z,7.59
2017-11-06T01:36:18.340Z,7.51
2017-11-06T01:38:45.801Z,7.40
2017-11-06T01:41:13.194Z,7.36
2017-11-06T01:43:40.603Z,7.31
2017-11-06T01:46:08.015Z,7.40
2017-11-06T01:48:35.423Z,7.49
2017-11-06T01:51:02.915Z,7.57
2017-11-06T01:53:30.356Z,7.57
2017-11-06T01:55:57.772Z,7.58
2017-11-06T01:58:25.177Z,7.54
2017-11-06T02:00:52.584Z,7.54
2017-11-06T02:03:19.975Z,7.40
2017-11-06T02:05:47.413Z,7.32
2017-11-06T02:08:14.804Z,7.26
2017-11-06T02:10:42.196Z,7.01
2017-11-06T02:13:09.616Z,7.06
2017-11-06T02:15:37.034Z,7.02
2017-11-06T02:18:04.413Z,6.89
2017-11-06T02:20:31.855Z,7.06
2017-11-06T02:22:59.256Z,7.05
2017-11-06T02:25:26.668Z,7.15
2017-11-06T02:27:54.085Z,7.30
2017-11-06T02:30:21.486Z,7.25
2017-11-06T02:32:48.934Z,7.08
2017-11-06T02:35:16.324Z,6.97
2017-11-06T02:37:43.756Z,6.93
2017-11-06T02:40:11.139Z,6.91
2017-11-06T02:42:38.607Z,7.02
2017-11-06T02:45:06.026Z,7.08
2017-11-06T02:47:33.459Z,7.07
2017-11-06T02:50:00.865Z,6.97
2017-11-06T02:52:28.313Z,6.93
2017-11-06T02:54:55.708Z,6.72
2017-11-06T02:57:23.095Z,6.60
2017-11-06T02:59:50.520Z,6.51
2017-11-06T03:02:18.756Z,6.60
2017-11-06T03:04:46.171Z,6.66
2017-11-06T03:07:13.575Z,6.67
2017-11-06T03:09:40.988Z,6.56
2017-11-06T03:12:08.404Z,6.39
2017-11-06T03:14:35.816Z,6.33
2017-11-06T03:17:03.216Z,6.27
2017-11-06T03:19:30.730Z,6.23
2017-11-06T03:21:58.131Z,6.28
2017-11-06T03:24:25.564Z,6.37
2017-11-06T03:26:53.003Z,6.32
2017-11-06T03:29:20.405Z,6.32
2017-11-06T03:31:47.847Z,6.41
2017-11-06T03:34:15.252Z,6.45
2017-11-06T03:36:42.681Z,6.61
2017-11-06T03:39:10.100Z,6.56
2017-11-06T03:41:37.526Z,6.52
2017-11-06T03:44:04.912Z,6.53
2017-11-06T03:46:32.319Z,6.55
2017-11-06T03:48:59.716Z,6.57
2017-11-06T03:51:27.132Z,6.59
2017-11-06T03:53:54.534Z,6.48
2017-11-06T03:56:21.916Z,6.40
2017-11-06T03:58:49.357Z,6.34
2017-11-06T04:01:16.776Z,6.19
2017-11-06T04:03:44.212Z,6.12
2017-11-06T04:06:11.610Z,6.04
2017-11-06T04:08:39.024Z,5.94
2017-11-06T04:11:06.425Z,5.88
2017-11-06T04:13:33.846Z,5.74
2017-11-06T04:16:01.267Z,5.86
2017-11-06T04:18:29.379Z,5.87
2017-11-06T04:20:56.807Z,5.95
2017-11-06T04:23:26.008Z,5.96
2017-11-06T04:25:53.431Z,6.05
2017-11-06T04:28:20.826Z,6.14
2017-11-06T04:30:48.272Z,6.09
2017-11-06T04:33:15.687Z,6.07
2017-11-06T04:35:43.099Z,5.80
2017-11-06T04:38:10.495Z,5.51
2017-11-06T04:40:37.916Z,5.47
2017-11-06T04:43:05.311Z,5.62
2017-11-06T04:45:32.740Z,5.77
2017-11-06T04:48:00.135Z,5.90
2017-11-06T04:50:27.524Z,5.98
2017-11-06T04:52:54.940Z,5.99
2017-11-06T04:55:22.327Z,5.90
2017-11-06T04:57:49.746Z,5.97
2017-11-06T05:00:17.140Z,6.04
2017-11-06T05:02:44.576Z,6.07
2017-11-06T05:05:11.975Z,5.87
2017-11-06T05:07:39.399Z,5.82
2017-11-06T05:10:06.815Z,5.88
2017-11-06T05:12:34.208Z,5.92
2017-11-06T05:15:01.628Z,6.06
2017-11-06T05:17:29.015Z,6.10
2017-11-06T05:19:56.439Z,6.12
2017-11-06T05:22:23.820Z,6.17
2017-11-06T05:24:51.257Z,6.18
2017-11-06T05:27:18.645Z,6.13
2017-11-06T05:29:46.077Z,6.26
2017-11-06T05:32:13.477Z,6.45
2017-11-06T05:34:40.882Z,6.36
2017-11-06T05:37:08.268Z,6.25
2017-11-06T05:39:35.719Z,6.19
2017-11-06T05:42:03.144Z,6.37
2017-11-06T05:44:30.571Z,6.48
2017-11-06T05:46:57.988Z,6.41
2017-11-06T05:49:25.407Z,6.39
2017-11-06T05:51:52.803Z,6.58
2017-11-06T05:54:20.235Z,6.61
2017-11-06T05:56:48.553Z,6.73
2017-11-06T05:59:15.980Z,6.74
2017-11-06T06:01:43.368Z,6.72
2017-11-06T06:04:10.797Z,6.89
2017-11-06T06:06:39.040Z,6.91
2017-11-06T06:09:06.436Z,6.76
2017-11-06T06:11:33.873Z,6.66
2017-11-06T06:14:01.249Z,6.54
2017-11-06T06:16:28.669Z,6.44
2017-11-06T06:18:56.087Z,6.50
2017-11-06T06:21:23.472Z,6.46
2017-11-06T06:23:50.922Z,6.48
2017-11-06T06:26:18.396Z,6.57
2017-11-06T06:28:45.911Z,6.48
2017-11-06T06:31:13.306Z,6.56
2017-11-06T06:33:40.729Z,6.59
2017-11-06T06:36:08.142Z,6.58
2017-11-06T06:38:35.576Z,10.03
2017-11-06T06:41:03.007Z,11.43
2017-11-06T06:43:30.428Z,12.18
2017-11-06T06:45:57.893Z,12.51
2017-11-06T06:48:25.307Z,12.75
2017-11-06T06:50:52.793Z,13.09
2017-11-06T06:53:20.200Z,13.36
2017-11-06T06:55:47.652Z,12.44
2017-11-06T06:58:15.057Z,10.56
2017-11-06T07:00:42.742Z,9.32
2017-11-06T07:03:14.947Z,8.47
2017-11-06T07:05:42.411Z,8.02
2017-11-06T07:08:09.829Z,7.76
2017-11-06T07:10:37.880Z,7.67
2017-11-06T07:13:05.280Z,7.56
2017-11-06T07:15:32.719Z,7.49
2017-11-06T07:18:00.099Z,7.20
2017-11-06T07:20:27.733Z,7.07
2017-11-06T07:22:55.165Z,6.94
2017-11-06T07:25:22.559Z,6.70
2017-11-06T07:27:50.890Z,6.73
2017-11-06T07:30:18.289Z,6.81
2017-11-06T07:32:45.707Z,7.02
2017-11-06T07:35:13.152Z,6.96
2017-11-06T07:37:40.576Z,7.02
2017-11-06T07:40:07.995Z,7.10
2017-11-06T07:42:36.815Z,7.21
2017-11-06T07:45:06.766Z,7.10
2017-11-06T07:47:34.330Z,6.94
2017-11-06T07:50:04.826Z,6.76
2017-11-06T07:52:32.456Z,7.00
2017-11-06T07:55:00.029Z,7.24
2017-11-06T07:57:33.050Z,7.44
2017-11-06T08:00:03.064Z,7.45
2017-11-06T08:02:32.493Z,7.48
2017-11-06T08:05:03.281Z,7.28
2017-11-06T08:07:30.676Z,7.34
2017-11-06T08:09:58.113Z,7.30
2017-11-06T08:12:28.087Z,7.46
2017-11-06T08:14:55.607Z,7.45
2017-11-06T08:17:24.041Z,7.36
2017-11-06T08:19:52.296Z,7.28
2017-11-06T08:22:19.871Z,7.26
2017-11-06T08:24:47.255Z,7.25
2017-11-06T08:27:14.870Z,7.43
2017-11-06T08:29:42.356Z,7.36
2017-11-06T08:32:12.620Z,7.35
2017-11-06T08:34:40.039Z,7.37
2017-11-06T08:37:07.545Z,7.46
2017-11-06T08:39:34.960Z,7.68
2017-11-06T08:42:02.372Z,7.75
2017-11-06T08:44:29.800Z,7.78
2017-11-06T08:46:57.228Z,7.73
2017-11-06T08:49:25.613Z,7.54
2017-11-06T08:51:53.099Z,7.56
2017-11-06T08:54:20.490Z,7.69
2017-11-06T08:56:48.834Z,7.84
2017-11-06T08:59:16.296Z,7.79
2017-11-06T09:01:43.767Z,7.75
2017-11-06T09:04:11.196Z,7.91
2017-11-06T09:06:38.596Z,8.09
2017-11-06T09:09:06.041Z,8.07
2017-11-06T09:11:33.460Z,8.15
2017-11-06T09:14:00.947Z,8.23
2017-11-06T09:16:28.406Z,8.32
2017-11-06T09:18:55.840Z,8.30
2017-11-06T09:21:24.028Z,8.22
2017-11-06T09:23:51.433Z,8.18
2017-11-06T09:26:18.860Z,8.26
2017-11-06T09:28:56.213Z,8.30
2017-11-06T09:31:23.690Z,8.50
2017-11-06T09:33:51.128Z,8.51
2017-11-06T09:36:18.625Z,8.59
2017-11-06T09:38:46.041Z,8.41
2017-11-06T09:41:13.499Z,8.28
2017-11-06T09:43:40.935Z,8.30
2017-11-06T09:46:08.563Z,8.30
2017-11-06T09:48:35.987Z,8.26
2017-11-06T09:51:03.429Z,8.48
2017-11-06T09:53:30.847Z,8.64
2017-11-06T09:56:00.896Z,8.85
2017-11-06T09:58:28.459Z,8.88
2017-11-06T10:00:55.914Z,9.05
2017-11-06T10:06:02.090Z,9.27
2017-11-06T10:08:29.627Z,9.33
2017-11-06T10:10:57.022Z,9.40
2017-11-06T10:13:24.471Z,9.42
2017-11-06T10:15:51.867Z,9.10
2017-11-06T10:18:20.214Z,9.15
2017-11-06T10:20:47.837Z,9.34
2017-11-06T10:23:15.269Z,9.48
2017-11-06T10:25:43.409Z,9.65
2017-11-06T10:28:10.824Z,9.73
2017-11-06T10:30:38.224Z,9.68
2017-11-06T10:33:12.741Z,9.75
2017-11-06T10:35:40.137Z,9.84
2017-11-06T10:38:07.547Z,9.95
2017-11-06T10:40:34.983Z,10.10
2017-11-06T10:43:02.389Z,10.18
2017-11-06T10:45:32.074Z,10.04
2017-11-06T10:48:00.959Z,10.02
2017-11-06T10:53:09.802Z,10.08
2017-11-06T10:55:39.488Z,10.25
2017-11-06T10:58:09.103Z,10.39
2017-11-06T11:00:36.536Z,10.44
2017-11-06T11:03:03.931Z,10.39
2017-11-06T11:05:31.370Z,10.43
2017-11-06T11:07:58.803Z,10.45
2017-11-06T11:10:26.232Z,10.51
2017-11-06T11:12:53.641Z,10.32
2017-11-06T11:15:21.069Z,10.09
2017-11-06T11:17:48.488Z,10.13
2017-11-06T11:20:15.963Z,10.10
2017-11-06T11:22:43.375Z,10.04
2017-11-06T11:25:10.795Z,9.94
2017-11-06T11:27:38.215Z,9.94
2017-11-06T11:30:05.621Z,9.85
2017-11-06T11:32:33.101Z,9.87
2017-11-06T11:35:00.488Z,9.95
2017-11-06T11:37:27.928Z,9.90
2017-11-06T11:39:55.362Z,9.61
2017-11-06T11:42:22.823Z,10.01
2017-11-06T11:44:50.265Z,10.11
2017-11-06T11:47:17.735Z,10.17
2017-11-06T11:49:45.158Z,9.83
2017-11-06T11:52:12.630Z,10.15
2017-11-06T11:54:40.079Z,10.20
2017-11-06T11:57:07.530Z,10.54
2017-11-06T11:59:34.992Z,10.62
2017-11-06T12:02:03.707Z,10.67
2017-11-06T12:04:31.934Z,10.71
2017-11-06T12:06:59.381Z,10.76
2017-11-06T12:09:26.837Z,10.73
2017-11-06T12:11:54.260Z,10.75
2017-11-06T12:14:21.705Z,10.72
2017-11-06T12:16:49.125Z,10.56
2017-11-06T12:19:16.567Z,10.56
2017-11-06T12:21:44.184Z,10.72
2017-11-06T12:24:11.602Z,10.82
2017-11-06T12:26:39.086Z,10.86
2017-11-06T12:29:06.557Z,10.60
2017-11-06T12:31:33.969Z,10.85
2017-11-06T12:34:01.384Z,10.77
2017-11-06T12:36:28.887Z,10.70
2017-11-06T12:38:56.424Z,10.75
2017-11-06T12:41:23.866Z,10.78
2017-11-06T12:43:52.632Z,10.71
2017-11-06T12:46:20.081Z,10.68
2017-11-06T12:48:47.626Z,10.63
2017-11-06T12:51:15.109Z,10.66
2017-11-06T12:53:42.534Z,10.62
2017-11-06T12:56:09.948Z,10.49
2017-11-06T12:58:37.384Z,10.57
2017-11-06T13:01:04.802Z,10.62
2017-11-06T13:03:32.261Z,10.68
2017-11-06T13:05:59.708Z,10.73
2017-11-06T13:08:27.424Z,10.77
2017-11-06T13:10:54.937Z,10.86
2017-11-06T13:13:22.371Z,10.93
2017-11-06T13:15:49.777Z,11.11
2017-11-06T13:18:17.245Z,11.33
2017-11-06T13:20:44.671Z,11.28
2017-11-06T13:23:12.104Z,11.23
2017-11-06T13:25:39.492Z,11.16
2017-11-06T13:28:06.948Z,11.19
2017-11-06T13:30:34.345Z,11.16
2017-11-06T13:33:01.756Z,11.15
2017-11-06T13:35:29.674Z,11.14
2017-11-06T13:37:57.336Z,11.22
2017-11-06T13:40:24.779Z,11.33
2017-11-06T13:42:52.237Z,11.10
2017-11-06T13:45:19.661Z,11.11
2017-11-06T13:47:47.068Z,11.20
2017-11-06T13:50:14.477Z,11.15
2017-11-06T13:52:42.057Z,11.09
2017-11-06T13:55:09.476Z,11.12
2017-11-06T13:57:36.896Z,11.02
2017-11-06T14:00:04.365Z,10.90
2017-11-06T14:02:31.781Z,11.06
2017-11-06T14:04:59.212Z,11.13
2017-11-06T14:07:26.636Z,11.01
2017-11-06T14:09:54.071Z,11.01
2017-11-06T14:12:21.489Z,11.02
2017-11-06T14:14:48.888Z,11.12
2017-11-06T14:17:16.349Z,11.14
2017-11-06T14:19:43.739Z,11.11
2017-11-06T14:22:11.152Z,11.22
2017-11-06T14:24:39.493Z,11.06
2017-11-06T14:27:06.937Z,11.00
2017-11-06T14:29:34.351Z,10.84
2017-11-06T14:32:01.803Z,10.51
2017-11-06T14:34:29.211Z,10.48
2017-11-06T14:36:56.653Z,10.52
2017-11-06T14:39:24.081Z,10.59
2017-11-06T14:41:51.490Z,10.53
2017-11-06T14:44:19.004Z,10.64
2017-11-06T14:46:46.399Z,10.68
2017-11-06T14:49:13.830Z,10.70
2017-11-06T14:51:41.234Z,10.54
2017-11-06T14:54:08.668Z,10.51
2017-11-06T14:56:36.093Z,10.50
2017-11-06T14:59:03.535Z,10.74
2017-11-06T15:01:30.976Z,10.69
2017-11-06T15:03:58.434Z,10.47
2017-11-06T15:06:25.891Z,10.32
2017-11-06T15:08:53.307Z,10.38
2017-11-06T15:11:21.207Z,10.35
2017-11-06T15:13:48.627Z,10.39
2017-11-06T15:16:16.068Z,10.37
2017-11-06T15:18:43.489Z,10.31
2017-11-06T15:21:10.932Z,10.26
2017-11-06T15:23:38.348Z,10.05
2017-11-06T15:26:05.752Z,10.17
2017-11-06T15:28:33.170Z,10.19
2017-11-06T15:31:00.604Z,10.31
2017-11-06T15:33:28.071Z,10.36
2017-11-06T15:35:55.480Z,10.27
2017-11-06T15:38:22.922Z,10.44
2017-11-06T15:40:50.344Z,10.46
2017-11-06T15:43:17.789Z,10.37
2017-11-06T15:45:45.189Z,10.33
2017-11-06T15:48:12.658Z,10.24
2017-11-06T15:50:40.091Z,10.29
2017-11-06T15:53:07.584Z,10.30
2017-11-06T15:55:35.011Z,10.33
2017-11-06T15:58:02.637Z,10.32
2017-11-06T16:00:30.057Z,10.26
2017-11-06T16:02:57.479Z,10.23
2017-11-06T16:05:24.900Z,10.22
2017-11-06T16:07:52.295Z,10.23
2017-11-06T16:10:19.740Z,10.10
2017-11-06T16:12:47.135Z,9.97
2017-11-06T16:15:14.580Z,10.08
2017-11-06T16:17:42.001Z,10.01
2017-11-06T16:20:09.424Z,9.93
2017-11-06T16:22:36.816Z,9.84
2017-11-06T16:25:04.237Z,9.89
2017-11-06T16:27:31.855Z,9.88
2017-11-06T16:29:59.356Z,9.89
2017-11-06T16:32:26.793Z,9.91
2017-11-06T16:34:54.264Z,9.99
2017-11-06T16:37:21.651Z,10.00
2017-11-06T16:39:49.146Z,9.85
2017-11-06T16:42:16.662Z,9.87
2017-11-06T16:44:44.169Z,9.92
2017-11-06T16:47:11.569Z,9.99
2017-11-06T16:49:39.012Z,9.91
2017-11-06T16:52:06.464Z,9.98
2017-11-06T16:54:33.888Z,10.03
2017-11-06T16:57:01.288Z,9.94
2017-11-06T16:59:28.764Z,10.00
2017-11-06T17:01:56.205Z,10.12
2017-11-06T17:04:23.649Z,10.12
2017-11-06T17:06:51.039Z,10.11
2017-11-06T17:09:19.284Z,10.16
2017-11-06T17:11:46.744Z,10.00
2017-11-06T17:14:14.167Z,10.05
2017-11-06T17:16:41.620Z,9.98
2017-11-06T17:19:09.071Z,9.95
2017-11-06T17:21:36.528Z,9.82
2017-11-06T17:24:03.916Z,9.79
2017-11-06T17:26:31.360Z,9.53
2017-11-06T17:28:58.771Z,9.63
2017-11-06T17:31:26.192Z,9.60
2017-11-06T17:33:53.624Z,9.59
2017-11-06T17:36:21.011Z,9.57
2017-11-06T17:38:48.458Z,9.66
2017-11-06T17:41:15.895Z,9.81
2017-11-06T17:43:43.446Z,9.88
2017-11-06T17:46:10.874Z,9.92
2017-11-06T17:48:38.369Z,9.93
2017-11-06T17:51:05.782Z,9.93
2017-11-06T17:53:33.213Z,9.91
2017-11-06T17:56:00.646Z,9.95
2017-11-06T17:58:28.150Z,9.98
2017-11-06T18:00:55.615Z,9.92
2017-11-06T18:03:23.081Z,9.92
2017-11-06T18:05:50.532Z,9.99
2017-11-06T18:08:17.954Z,10.06
2017-11-06T18:10:45.430Z,10.08
2017-11-06T18:13:13.595Z,10.00
2017-11-06T18:15:41.169Z,9.99
2017-11-06T18:18:08.586Z,10.05
2017-11-06T18:20:36.037Z,10.04
2017-11-06T18:23:03.439Z,10.06
2017-11-06T18:25:30.959Z,10.04
2017-11-06T18:27:58.394Z,9.99
2017-11-06T18:30:25.843Z,9.93
2017-11-06T18:32:53.296Z,9.92
2017-11-06T18:35:20.683Z,9.90
2017-11-06T18:37:48.156Z,9.83
2017-11-06T18:40:15.599Z,9.78
2017-11-06T18:42:43.029Z,9.75
2017-11-06T18:45:10.463Z,9.77
2017-11-06T18:47:37.893Z,9.77
2017-11-06T18:50:05.351Z,9.73
2017-11-06T18:52:32.778Z,9.68
2017-11-06T18:55:00.239Z,9.44
2017-11-06T18:57:27.878Z,9.50
2017-11-06T18:59:55.368Z,9.58
2017-11-06T19:02:22.841Z,9.58
2017-11-06T19:04:51.171Z,9.56
2017-11-06T19:07:18.561Z,9.53
2017-11-06T19:09:46.063Z,9.52
2017-11-06T19:12:13.556Z,9.45
2017-11-06T19:14:40.971Z,9.48
2017-11-06T19:17:08.433Z,9.43
2017-11-06T19:19:35.875Z,9.33
2017-11-06T19:22:03.774Z,9.35
2017-11-06T19:24:31.280Z,9.34
2017-11-06T19:26:58.735Z,9.29
2017-11-06T19:29:26.171Z,9.25
2017-11-06T19:31:53.624Z,9.22
2017-11-06T19:34:21.059Z,9.18
2017-11-06T19:36:48.531Z,9.06
2017-11-06T19:39:15.997Z,9.16
2017-11-06T19:41:43.463Z,9.16
2017-11-06T19:44:10.892Z,9.06
2017-11-06T19:46:38.359Z,8.85
2017-11-06T19:49:05.794Z,8.73
2017-11-06T19:51:33.299Z,8.74
2017-11-06T19:54:00.764Z,8.75
2017-11-06T19:56:28.198Z,8.74
2017-11-06T19:58:55.649Z,8.77
2017-11-06T20:01:23.068Z,8.83
2017-11-06T20:03:50.544Z,8.90
2017-11-06T20:06:18.022Z,8.90
2017-11-06T20:08:45.526Z,8.95
2017-11-06T20:11:12.944Z,8.96
2017-11-06T20:13:40.394Z,8.91
2017-11-06T20:16:13.396Z,8.89
2017-11-06T20:18:41.061Z,8.84
2017-11-06T20:21:08.505Z,8.73
2017-11-06T20:23:36.805Z,8.84
2017-11-06T20:26:04.233Z,8.79
2017-11-06T20:28:31.638Z,8.65
2017-11-06T20:30:59.281Z,8.61
2017-11-06T20:33:26.715Z,8.54
2017-11-06T20:35:54.239Z,8.48
2017-11-06T20:38:21.741Z,8.46
2017-11-06T20:40:49.190Z,8.46
2017-11-06T20:43:16.860Z,8.29
2017-11-06T20:45:44.280Z,8.24
2017-11-06T20:48:11.730Z,8.35
2017-11-06T20:50:39.177Z,8.32
2017-11-06T20:53:06.569Z,8.30
2017-11-06T20:55:34.036Z,8.39
2017-11-06T20:58:01.443Z,8.40
2017-11-06T21:00:28.940Z,8.27
2017-11-06T21:02:56.506Z,8.17
2017-11-06T21:05:23.982Z,8.13
2017-11-06T21:07:51.423Z,7.97
2017-11-06T21:10:19.795Z,7.90
2017-11-06T21:12:47.445Z,7.87
2017-11-06T21:15:14.897Z,7.83
2017-11-06T21:17:42.600Z,7.82
2017-11-06T21:20:10.044Z,7.72
2017-11-06T21:22:37.697Z,7.62
2017-11-06T21:25:05.114Z,7.51
2017-11-06T21:27:32.569Z,7.48
2017-11-06T21:30:05.602Z,7.47
2017-11-06T21:32:33.170Z,7.42
2017-11-06T21:35:01.621Z,7.11
2017-11-06T21:37:29.049Z,6.99
2017-11-06T21:39:56.502Z,7.11
2017-11-06T21:42:24.018Z,7.15
2017-11-06T21:44:51.429Z,7.19
2017-11-06T21:47:18.893Z,7.17
2017-11-06T21:49:46.324Z,7.16
2017-11-06T21:52:13.803Z,7.15
2017-11-06T21:54:41.303Z,6.99
2017-11-06T21:57:08.706Z,7.03
2017-11-06T21:59:36.148Z,7.00
2017-11-06T22:02:03.576Z,6.69
2017-11-06T22:04:31.022Z,6.62
2017-11-06T22:06:58.487Z,6.61
2017-11-06T22:09:25.994Z,6.31
2017-11-06T22:11:53.456Z,6.35
2017-11-06T22:14:20.937Z,6.48
2017-11-06T22:16:48.394Z,6.36
2017-11-06T22:19:15.825Z,6.40
2017-11-06T22:21:43.248Z,6.52
2017-11-06T22:24:10.832Z,6.56
2017-11-06T22:26:38.244Z,6.55
2017-11-06T22:29:05.643Z,6.52
2017-11-06T22:31:33.092Z,6.24
2017-11-06T22:34:00.510Z,5.83
2017-11-06T22:36:27.948Z,5.86
2017-11-06T22:38:55.396Z,5.98
2017-11-06T22:41:22.820Z,5.68
2017-11-06T22:43:50.263Z,5.89
2017-11-06T22:46:17.674Z,6.02
2017-11-06T22:48:45.142Z,6.09
2017-11-06T22:51:12.550Z,6.19
2017-11-06T22:53:39.993Z,6.27
2017-11-06T22:56:07.417Z,6.26
2017-11-06T22:58:34.893Z,6.19
2017-11-06T23:01:02.343Z,6.24
2017-11-06T23:03:29.887Z,6.19
2017-11-06T23:05:57.290Z,6.30
2017-11-06T23:08:24.753Z,6.37
2017-11-06T23:10:52.209Z,6.26
2017-11-06T23:13:19.644Z,6.28
2017-11-06T23:15:47.098Z,6.24
2017-11-06T23:18:14.488Z,6.17
2017-11-06T23:20:41.919Z,6.18
2017-11-06T23:23:09.324Z,6.11
2017-11-06T23:25:36.789Z,6.20
2017-11-06T23:28:04.195Z,6.03
2017-11-06T23:30:31.596Z,5.94
2017-11-06T23:32:59.043Z,5.84
2017-11-06T23:35:27.475Z,5.81
2017-11-06T23:37:54.941Z,5.87
2017-11-06T23:40:22.351Z,5.81
2017-11-06T23:42:49.803Z,5.81
2017-11-06T23:45:17.234Z,5.86
2017-11-06T23:47:44.672Z,5.73
2017-11-06T23:50:12.984Z,5.71
2017-11-06T23:52:40.487Z,5.70
2017-11-06T23:55:07.910Z,5.72
2017-11-06T23:57:35.355Z,5.62
